createdAt,value
2023-01-04T00:02:02.868Z,80.60
2023-01-04T00:04:31.167Z,80.70
2023-01-04T00:06:59.395Z,80.70
2023-01-04T00:09:27.543Z,80.70
2023-01-04T00:11:55.711Z,80.70
2023-01-04T00:14:23.919Z,80.70
2023-01-04T00:16:52.130Z,80.80
2023-01-04T00:19:21.738Z,80.80
2023-01-04T00:21:49.907Z,80.90
2023-01-04T00:24:18.206Z,80.80
2023-01-04T00:26:46.413Z,80.80
2023-01-04T00:29:15.237Z,80.70
2023-01-04T00:31:44.728Z,80.80
2023-01-04T00:34:16.094Z,80.90
2023-01-04T00:36:46.475Z,80.90
2023-01-04T00:39:17.068Z,80.80
2023-01-04T00:42:03.183Z,80.70
2023-01-04T00:44:32.070Z,80.60
2023-01-04T00:47:01.049Z,80.60
2023-01-04T00:49:30.197Z,80.60
2023-01-04T00:51:59.864Z,80.60
2023-01-04T00:54:28.183Z,80.70
2023-01-04T00:56:56.454Z,80.60
2023-01-04T00:59:24.883Z,80.50
2023-01-04T01:01:53.306Z,80.50
2023-01-04T01:04:24.414Z,80.60
2023-01-04T01:06:53.188Z,80.60
2023-01-04T01:09:23.851Z,80.50
2023-01-04T01:11:52.952Z,80.70
2023-01-04T01:14:23.545Z,80.60
2023-01-04T01:16:55.956Z,80.80
2023-01-04T01:19:26.457Z,80.70
2023-01-04T01:21:56.407Z,80.80
2023-01-04T01:24:26.242Z,81.00
2023-01-04T01:26:54.821Z,81.00
2023-01-04T01:29:23.063Z,81.00
2023-01-04T01:31:51.299Z,80.90
2023-01-04T01:34:19.529Z,80.90
2023-01-04T01:36:47.928Z,80.90
2023-01-04T01:39:16.147Z,80.90
2023-01-04T01:41:46.040Z,80.90
2023-01-04T01:44:56.525Z,80.90
2023-01-04T01:47:27.881Z,81.40
2023-01-04T01:49:56.230Z,81.00
2023-01-04T01:52:28.771Z,81.00
2023-01-04T01:55:00.996Z,81.30
2023-01-04T01:57:34.657Z,81.40
2023-01-04T02:00:06.586Z,81.50
2023-01-04T02:02:35.748Z,81.50
2023-01-04T02:05:05.074Z,81.40
2023-01-04T02:07:33.833Z,81.40
2023-01-04T02:10:02.532Z,81.40
2023-01-04T02:12:32.136Z,81.30
2023-01-04T02:15:00.601Z,81.30
2023-01-04T02:17:39.679Z,81.10
2023-01-04T02:20:34.599Z,81.30
2023-01-04T02:23:32.507Z,81.40
2023-01-04T02:26:46.212Z,81.40
2023-01-04T02:29:48.421Z,81.50
2023-01-04T02:32:26.389Z,81.60
2023-01-04T02:35:04.828Z,81.40
2023-01-04T02:37:42.495Z,81.50
2023-01-04T02:40:19.571Z,82.50
2023-01-04T02:43:16.094Z,82.00
2023-01-04T02:45:50.567Z,82.10
2023-01-04T02:48:37.475Z,82.10
2023-01-04T02:51:05.785Z,82.10
2023-01-04T02:53:37.943Z,81.90
2023-01-04T02:56:16.677Z,82.00
2023-01-04T02:58:58.232Z,81.90
2023-01-04T03:01:53.035Z,81.80
2023-01-04T03:04:53.630Z,81.60
2023-01-04T03:07:29.285Z,81.50
2023-01-04T03:10:08.259Z,81.40
2023-01-04T03:12:42.555Z,81.30
2023-01-04T03:15:15.983Z,81.20
2023-01-04T03:17:49.268Z,81.10
2023-01-04T03:20:19.842Z,81.10
2023-01-04T03:23:10.880Z,81.10
2023-01-04T03:26:00.302Z,80.70
2023-01-04T03:28:49.174Z,80.80
2023-01-04T03:31:40.604Z,80.80
2023-01-04T03:34:26.669Z,80.90
2023-01-04T03:37:05.961Z,80.70
2023-01-04T03:40:01.826Z,80.90
2023-01-04T03:42:52.463Z,80.90
2023-01-04T03:45:41.019Z,80.80
2023-01-04T03:48:33.414Z,80.70
2023-01-04T03:51:14.586Z,80.80
2023-01-04T03:53:53.029Z,80.90
2023-01-04T03:56:23.948Z,80.90
2023-01-04T03:58:54.869Z,80.70
2023-01-04T04:01:26.394Z,80.70
2023-01-04T04:04:13.178Z,80.70
2023-01-04T04:06:59.140Z,80.70
2023-01-04T04:09:28.769Z,80.70
2023-01-04T04:11:57.089Z,80.70
2023-01-04T04:14:25.376Z,80.70
2023-01-04T04:16:53.653Z,80.70
2023-01-04T04:19:22.127Z,80.60
2023-01-04T04:21:50.376Z,80.70
2023-01-04T04:24:20.305Z,80.70
2023-01-04T04:26:50.151Z,80.80
2023-01-04T04:29:18.990Z,80.80
2023-01-04T04:31:47.573Z,80.70
2023-01-04T04:34:16.058Z,80.80
2023-01-04T04:36:44.225Z,80.80
2023-01-04T04:39:13.176Z,80.80
2023-01-04T04:41:41.707Z,80.90
2023-01-04T04:44:13.718Z,80.90
2023-01-04T04:46:42.316Z,80.90
2023-01-04T04:49:11.120Z,80.90
2023-01-04T04:51:39.501Z,80.90
2023-01-04T04:54:08.459Z,81.00
2023-01-04T04:56:37.212Z,81.00
2023-01-04T04:59:06.309Z,81.00
2023-01-04T05:01:36.072Z,81.00
2023-01-04T05:04:04.819Z,81.00
2023-01-04T05:06:33.005Z,81.00
2023-01-04T05:09:01.327Z,81.00
2023-01-04T05:11:47.224Z,81.00
2023-01-04T05:14:15.409Z,81.00
2023-01-04T05:16:45.465Z,81.00
2023-01-04T05:19:13.813Z,81.00
2023-01-04T05:21:42.281Z,81.10
2023-01-04T05:24:12.999Z,81.10
2023-01-04T05:26:41.484Z,81.10
2023-01-04T05:29:29.682Z,81.10
2023-01-04T05:31:58.365Z,81.20
2023-01-04T05:34:26.663Z,81.20
2023-01-04T05:36:54.855Z,81.20
2023-01-04T05:39:23.034Z,81.10
2023-01-04T05:42:08.539Z,81.20
2023-01-04T05:44:36.743Z,81.30
2023-01-04T05:47:09.686Z,81.30
2023-01-04T05:49:41.184Z,81.40
2023-01-04T05:52:09.450Z,81.40
2023-01-04T05:54:37.648Z,81.50
2023-01-04T05:57:05.869Z,81.40
2023-01-04T05:59:40.913Z,81.50
2023-01-04T06:02:15.616Z,81.50
2023-01-04T06:04:43.905Z,81.50
2023-01-04T06:07:12.193Z,81.30
2023-01-04T06:09:40.409Z,81.30
2023-01-04T06:12:08.995Z,81.30
2023-01-04T06:14:37.639Z,81.90
2023-01-04T06:17:06.224Z,81.40
2023-01-04T06:19:36.186Z,81.50
2023-01-04T06:22:04.411Z,81.70
2023-01-04T06:24:34.107Z,81.60
2023-01-04T06:27:02.521Z,81.50
2023-01-04T06:29:30.845Z,81.40
2023-01-04T06:31:59.172Z,81.30
2023-01-04T06:34:31.235Z,81.40
2023-01-04T06:37:01.406Z,82.00
2023-01-04T06:39:29.627Z,81.40
2023-01-04T06:42:05.495Z,81.40
2023-01-04T06:44:34.753Z,81.40
2023-01-04T06:47:02.991Z,81.40
2023-01-04T06:49:31.234Z,81.50
2023-01-04T06:52:00.806Z,81.50
2023-01-04T06:54:29.878Z,81.40
2023-01-04T06:56:58.144Z,81.50
2023-01-04T06:59:26.387Z,81.40
2023-01-04T07:01:54.810Z,81.40
2023-01-04T07:04:23.262Z,81.50
2023-01-04T07:06:51.502Z,81.50
2023-01-04T07:09:21.099Z,81.40
2023-01-04T07:11:49.288Z,81.40
2023-01-04T07:14:17.663Z,81.40
2023-01-04T07:16:45.997Z,81.40
2023-01-04T07:19:14.273Z,81.50
2023-01-04T07:21:42.854Z,81.50
2023-01-04T07:24:11.239Z,81.60
2023-01-04T07:26:40.891Z,81.50
2023-01-04T07:29:17.381Z,81.60
2023-01-04T07:31:47.662Z,81.40
2023-01-04T07:34:17.260Z,81.40
2023-01-04T07:36:45.728Z,81.40
2023-01-04T07:39:13.919Z,81.30
2023-01-04T07:41:43.845Z,81.30
2023-01-04T07:44:13.472Z,81.40
2023-01-04T07:46:42.618Z,81.30
2023-01-04T07:49:17.512Z,81.30
2023-01-04T07:51:47.261Z,81.40
2023-01-04T07:54:16.016Z,81.40
2023-01-04T07:56:46.356Z,81.40
2023-01-04T07:59:16.074Z,81.50
2023-01-04T08:01:44.806Z,81.50
2023-01-04T08:04:14.463Z,81.50
2023-01-04T08:06:44.078Z,81.50
2023-01-04T08:09:13.182Z,81.40
2023-01-04T08:11:41.608Z,81.40
2023-01-04T08:14:11.786Z,81.40
2023-01-04T08:16:42.667Z,81.50
2023-01-04T08:19:14.230Z,81.50
2023-01-04T08:21:43.230Z,81.50
2023-01-04T08:24:12.418Z,81.40
2023-01-04T08:26:40.801Z,81.50
2023-01-04T08:29:10.535Z,81.60
2023-01-04T08:31:39.009Z,82.20
2023-01-04T08:34:09.549Z,81.60
2023-01-04T08:36:46.468Z,81.60
2023-01-04T08:39:14.733Z,81.80
2023-01-04T08:42:06.879Z,81.60
2023-01-04T08:44:40.776Z,81.60
2023-01-04T08:47:09.072Z,81.60
2023-01-04T08:49:37.307Z,81.60
2023-01-04T08:52:05.749Z,81.50
2023-01-04T08:54:34.332Z,81.70
2023-01-04T08:57:02.538Z,81.60
2023-01-04T08:59:30.739Z,81.60
2023-01-04T09:02:05.237Z,81.60
2023-01-04T09:04:34.478Z,81.60
2023-01-04T09:07:02.761Z,81.60
2023-01-04T09:09:31.317Z,81.50
2023-01-04T09:11:59.740Z,81.70
2023-01-04T09:14:28.114Z,81.80
2023-01-04T09:16:56.347Z,81.70
2023-01-04T09:19:25.958Z,81.70
2023-01-04T09:21:54.208Z,81.50
2023-01-04T09:24:22.603Z,81.40
2023-01-04T09:26:51.115Z,81.20
2023-01-04T09:29:19.326Z,81.00
2023-01-04T09:31:47.824Z,80.80
2023-01-04T09:34:17.798Z,80.60
2023-01-04T09:36:48.793Z,80.40
2023-01-04T09:39:23.107Z,80.00
2023-01-04T09:41:58.093Z,79.90
2023-01-04T09:47:36.030Z,79.80
2023-01-04T09:50:08.069Z,79.80
2023-01-04T09:52:52.037Z,80.00
2023-01-04T09:55:37.412Z,80.00
2023-01-04T09:58:17.486Z,80.00
2023-01-04T10:00:48.118Z,80.10
2023-01-04T10:03:22.068Z,80.20
2023-01-04T10:05:51.243Z,80.40
2023-01-04T10:08:22.290Z,80.40
2023-01-04T10:10:58.064Z,80.40
2023-01-04T10:13:44.677Z,80.70
2023-01-04T10:16:44.263Z,80.80
2023-01-04T10:20:59.632Z,80.80
2023-01-04T10:22:16.962Z,81.00
2023-01-04T10:24:57.169Z,81.10
2023-01-04T10:27:36.609Z,81.20
2023-01-04T10:30:26.934Z,81.10
2023-01-04T10:33:02.672Z,81.20
2023-01-04T10:35:32.299Z,81.00
2023-01-04T10:38:03.496Z,81.00
2023-01-04T10:40:36.790Z,81.00
2023-01-04T10:43:07.264Z,81.10
2023-01-04T10:45:42.862Z,81.10
2023-01-04T10:48:18.468Z,80.80
2023-01-04T10:50:54.735Z,80.70
2023-01-04T10:53:27.312Z,80.60
2023-01-04T10:56:24.415Z,80.60
2023-01-04T10:59:01.179Z,80.60
2023-01-04T11:01:34.728Z,80.50
2023-01-04T11:04:07.233Z,80.40
2023-01-04T11:06:40.149Z,80.40
2023-01-04T11:09:18.419Z,80.40
2023-01-04T11:11:54.166Z,80.40
2023-01-04T11:14:23.461Z,80.40
2023-01-04T11:16:55.529Z,80.30
2023-01-04T11:19:23.984Z,80.40
2023-01-04T11:21:58.982Z,80.30
2023-01-04T11:24:33.238Z,80.40
2023-01-04T11:27:08.770Z,80.20
2023-01-04T11:29:45.252Z,80.20
2023-01-04T11:32:22.049Z,80.20
2023-01-04T11:34:53.109Z,80.20
2023-01-04T11:37:33.552Z,80.20
2023-01-04T11:40:24.172Z,80.20
2023-01-04T11:43:11.288Z,80.20
2023-01-04T11:45:39.688Z,80.10
2023-01-04T11:48:14.333Z,80.00
2023-01-04T11:50:47.957Z,80.00
2023-01-04T11:53:26.514Z,80.00
2023-01-04T11:56:16.588Z,80.10
2023-01-04T11:59:03.457Z,79.90
2023-01-04T12:01:32.742Z,79.80
2023-01-04T12:04:01.383Z,79.80
2023-01-04T12:06:36.570Z,79.80
2023-01-04T12:09:05.275Z,79.80
2023-01-04T12:11:41.087Z,79.80
2023-01-04T12:14:22.908Z,79.80
2023-01-04T12:17:01.596Z,80.10
2023-01-04T12:19:30.420Z,79.70
2023-01-04T12:22:01.682Z,79.70
2023-01-04T12:24:32.868Z,79.70
2023-01-04T12:27:02.714Z,80.40
2023-01-04T12:29:46.587Z,79.80
2023-01-04T12:32:41.662Z,79.90
2023-01-04T12:36:02.624Z,79.90
2023-01-04T12:39:00.433Z,80.00
2023-01-04T12:42:19.316Z,80.20
2023-01-04T12:45:22.736Z,80.10
2023-01-04T12:48:10.445Z,80.30
2023-01-04T12:51:31.105Z,80.00
2023-01-04T12:54:03.486Z,80.40
2023-01-04T12:57:08.893Z,80.20
2023-01-04T12:59:38.758Z,80.60
2023-01-04T13:02:24.897Z,80.30
2023-01-04T13:05:17.029Z,80.80
2023-01-04T13:07:46.066Z,80.60
2023-01-04T13:10:28.075Z,80.60
2023-01-04T13:13:28.981Z,81.10
2023-01-04T13:16:11.123Z,81.20
2023-01-04T13:18:43.609Z,81.20
2023-01-04T13:21:14.931Z,81.20
2023-01-04T13:23:50.542Z,81.30
2023-01-04T13:26:39.148Z,81.60
2023-01-04T13:29:15.658Z,81.90
2023-01-04T13:31:51.191Z,81.90
2023-01-04T13:34:27.421Z,82.00
2023-01-04T13:37:08.781Z,82.00
2023-01-04T13:39:38.095Z,82.10
2023-01-04T13:42:08.135Z,81.80
2023-01-04T13:45:21.580Z,82.00
2023-01-04T13:47:53.104Z,82.10
2023-01-04T13:50:33.936Z,81.90
2023-01-04T13:53:07.622Z,82.50
2023-01-04T13:55:37.594Z,82.10
2023-01-04T13:58:08.215Z,82.20
2023-01-04T14:00:44.715Z,82.30
2023-01-04T14:03:28.024Z,82.40
2023-01-04T14:06:13.386Z,82.70
2023-01-04T14:08:45.820Z,82.50
2023-01-04T14:11:35.004Z,82.30
2023-01-04T14:14:03.948Z,82.50
2023-01-04T14:16:32.182Z,82.20
2023-01-04T14:19:20.427Z,82.20
2023-01-04T14:21:52.788Z,82.40
2023-01-04T14:27:37.421Z,82.80
2023-01-04T14:30:17.141Z,82.70
2023-01-04T14:32:55.098Z,82.60
2023-01-04T14:35:23.708Z,82.60
2023-01-04T14:37:53.759Z,82.40
2023-01-04T14:40:26.905Z,82.60
2023-01-04T14:42:55.784Z,82.70
2023-01-04T14:45:24.020Z,82.60
2023-01-04T14:47:52.231Z,82.60
2023-01-04T14:50:20.583Z,82.70
2023-01-04T14:52:53.971Z,82.70
2023-01-04T14:55:23.464Z,82.90
2023-01-04T14:57:52.049Z,82.70
2023-01-04T15:00:20.641Z,82.80
2023-01-04T15:02:50.896Z,82.70
2023-01-04T15:05:20.749Z,82.80
2023-01-04T15:07:49.487Z,82.80
2023-01-04T15:10:23.601Z,82.80
2023-01-04T15:12:52.017Z,83.10
2023-01-04T15:15:21.032Z,82.90
2023-01-04T15:17:49.318Z,83.00
2023-01-04T15:20:17.596Z,82.90
2023-01-04T15:22:46.232Z,82.90
2023-01-04T15:25:14.425Z,83.00
2023-01-04T15:27:44.124Z,82.90
2023-01-04T15:30:15.662Z,82.90
2023-01-04T15:32:44.373Z,82.80
2023-01-04T15:35:16.293Z,82.80
2023-01-04T15:37:44.647Z,82.70
2023-01-04T15:40:13.929Z,82.60
2023-01-04T15:43:02.058Z,82.60
2023-01-04T15:45:32.449Z,82.70
2023-01-04T15:48:03.232Z,82.60
2023-01-04T15:50:32.008Z,82.60
2023-01-04T15:53:00.253Z,82.60
2023-01-04T15:55:36.124Z,82.60
2023-01-04T15:58:06.544Z,82.80
2023-01-04T16:00:34.770Z,82.70
2023-01-04T16:03:03.131Z,82.70
2023-01-04T16:05:31.375Z,82.60
2023-01-04T16:07:59.728Z,82.60
2023-01-04T16:10:28.474Z,82.60
2023-01-04T16:12:57.999Z,82.60
2023-01-04T16:15:27.921Z,82.60
2023-01-04T16:17:56.329Z,82.60
2023-01-04T16:20:25.269Z,82.50
2023-01-04T16:22:53.463Z,82.50
2023-01-04T16:25:21.796Z,82.40
2023-01-04T16:27:50.030Z,82.40
2023-01-04T16:30:18.440Z,82.30
2023-01-04T16:32:48.510Z,82.30
2023-01-04T16:35:16.879Z,82.30
2023-01-04T16:37:46.446Z,82.40
2023-01-04T16:40:14.698Z,82.30
2023-01-04T16:42:43.681Z,82.30
2023-01-04T16:45:13.280Z,82.20
2023-01-04T16:47:43.063Z,82.20
2023-01-04T16:50:14.515Z,82.20
2023-01-04T16:52:42.715Z,82.20
2023-01-04T16:55:11.900Z,82.10
2023-01-04T16:57:40.122Z,82.10
2023-01-04T17:00:09.707Z,82.10
2023-01-04T17:02:38.032Z,82.00
2023-01-04T17:05:06.982Z,82.00
2023-01-04T17:07:36.582Z,82.10
2023-01-04T17:10:05.849Z,82.00
2023-01-04T17:12:49.527Z,82.00
2023-01-04T17:18:07.183Z,82.00
2023-01-04T17:20:35.425Z,81.90
2023-01-04T17:23:05.124Z,81.90
2023-01-04T17:25:35.664Z,81.90
2023-01-04T17:28:03.878Z,82.00
2023-01-04T17:30:32.030Z,82.00
2023-01-04T17:33:00.250Z,82.00
2023-01-04T17:35:28.419Z,82.00
2023-01-04T17:37:56.599Z,81.90
2023-01-04T17:40:26.191Z,81.90
2023-01-04T17:42:54.388Z,81.90
2023-01-04T17:45:22.703Z,81.90
2023-01-04T17:47:51.168Z,82.00
2023-01-04T17:50:19.577Z,82.00
2023-01-04T17:52:49.038Z,82.10
2023-01-04T17:55:17.411Z,82.00
2023-01-04T17:57:47.383Z,82.00
2023-01-04T18:00:16.424Z,82.00
2023-01-04T18:02:45.125Z,82.10
2023-01-04T18:05:13.724Z,82.00
2023-01-04T18:07:41.936Z,82.00
2023-01-04T18:10:20.717Z,82.10
2023-01-04T18:12:50.924Z,82.10
2023-01-04T18:15:19.290Z,82.10
2023-01-04T18:17:47.491Z,82.10
2023-01-04T18:20:24.628Z,82.10
2023-01-04T18:22:53.485Z,82.10
2023-01-04T18:25:21.691Z,82.10
2023-01-04T18:27:51.290Z,82.00
2023-01-04T18:30:19.668Z,82.10
2023-01-04T18:32:48.334Z,82.00
2023-01-04T18:35:16.769Z,81.90
2023-01-04T18:37:46.370Z,81.90
2023-01-04T18:40:14.884Z,82.00
2023-01-04T18:42:48.345Z,82.00
2023-01-04T18:45:18.650Z,82.10
2023-01-04T18:47:48.165Z,82.10
2023-01-04T18:50:16.970Z,82.00
2023-01-04T18:52:45.576Z,82.10
2023-01-04T18:55:13.909Z,82.10
2023-01-04T18:57:42.535Z,82.20
2023-01-04T19:00:12.188Z,82.20
2023-01-04T19:02:42.030Z,82.30
2023-01-04T19:05:11.615Z,82.50
2023-01-04T19:07:40.540Z,82.60
2023-01-04T19:10:09.849Z,82.80
2023-01-04T19:12:38.983Z,82.80
2023-01-04T19:15:09.383Z,82.70
2023-01-04T19:17:38.832Z,82.50
2023-01-04T19:20:09.336Z,82.20
2023-01-04T19:22:37.536Z,82.00
2023-01-04T19:25:06.867Z,81.80
2023-01-04T19:27:35.597Z,81.60
2023-01-04T19:30:03.928Z,81.30
2023-01-04T19:32:33.839Z,81.10
2023-01-04T19:35:02.381Z,80.80
2023-01-04T19:37:32.121Z,80.70
2023-01-04T19:40:00.367Z,80.60
2023-01-04T19:42:28.638Z,80.40
2023-01-04T19:44:57.351Z,80.30
2023-01-04T19:47:25.827Z,80.80
2023-01-04T19:49:54.330Z,80.00
2023-01-04T19:52:22.579Z,80.00
2023-01-04T19:54:52.236Z,79.90
2023-01-04T19:57:20.522Z,79.70
2023-01-04T19:59:48.788Z,79.70
2023-01-04T20:02:17.126Z,79.60
2023-01-04T20:04:45.694Z,79.50
2023-01-04T20:07:13.930Z,79.40
2023-01-04T20:09:42.520Z,79.40
2023-01-04T20:12:12.156Z,79.30
2023-01-04T20:14:40.367Z,79.20
2023-01-04T20:17:08.656Z,79.30
2023-01-04T20:19:37.018Z,79.10
2023-01-04T20:22:05.268Z,79.10
2023-01-04T20:24:34.211Z,79.10
2023-01-04T20:27:02.471Z,79.00
2023-01-04T20:29:33.322Z,79.00
2023-01-04T20:32:03.418Z,78.90
2023-01-04T20:34:31.732Z,79.00
2023-01-04T20:36:59.985Z,78.90
2023-01-04T20:39:28.212Z,78.90
2023-01-04T20:42:13.629Z,78.80
2023-01-04T20:44:43.240Z,78.80
2023-01-04T20:47:11.464Z,78.80
2023-01-04T20:49:39.724Z,78.80
2023-01-04T20:52:08.104Z,78.70
2023-01-04T20:54:36.470Z,78.60
2023-01-04T20:57:04.681Z,78.70
2023-01-04T20:59:33.000Z,78.80
2023-01-04T21:02:03.445Z,78.80
2023-01-04T21:04:32.215Z,78.90
2023-01-04T21:07:00.444Z,78.90
2023-01-04T21:09:28.827Z,79.10
2023-01-04T21:11:58.593Z,79.10
2023-01-04T21:14:31.654Z,79.20
2023-01-04T21:16:59.831Z,79.30
2023-01-04T21:19:29.432Z,79.40
2023-01-04T21:21:57.869Z,79.30
2023-01-04T21:24:26.075Z,79.40
2023-01-04T21:26:54.246Z,79.30
2023-01-04T21:29:22.442Z,79.30
2023-01-04T21:31:50.628Z,79.30
2023-01-04T21:34:22.897Z,79.20
2023-01-04T21:36:52.834Z,79.20
2023-01-04T21:39:21.163Z,79.10
2023-01-04T21:41:51.453Z,79.10
2023-01-04T21:44:19.711Z,78.90
2023-01-04T21:46:48.290Z,78.90
2023-01-04T21:49:16.547Z,78.90
2023-01-04T21:51:44.922Z,78.80
2023-01-04T21:54:14.494Z,78.70
2023-01-04T21:56:44.735Z,78.50
2023-01-04T21:59:13.050Z,78.50
2023-01-04T22:01:42.896Z,78.30
2023-01-04T22:04:11.198Z,78.10
2023-01-04T22:06:40.444Z,77.90
2023-01-04T22:09:08.771Z,77.80
2023-01-04T22:11:40.628Z,77.70
2023-01-04T22:14:08.921Z,77.30
2023-01-04T22:16:37.178Z,77.40
2023-01-04T22:19:05.437Z,77.40
2023-01-04T22:21:33.745Z,77.20
2023-01-04T22:24:02.334Z,77.10
2023-01-04T22:26:30.572Z,77.10
2023-01-04T22:29:00.220Z,77.00
2023-01-04T22:31:28.484Z,76.80
2023-01-04T22:33:56.784Z,76.80
2023-01-04T22:36:25.113Z,76.80
2023-01-04T22:38:54.255Z,76.50
2023-01-04T22:41:24.134Z,76.40
2023-01-04T22:43:57.389Z,76.40
2023-01-04T22:46:27.437Z,76.20
2023-01-04T22:48:56.157Z,76.80
2023-01-04T22:51:27.505Z,76.40
2023-01-04T22:53:57.096Z,76.20
2023-01-04T22:56:25.944Z,76.20
2023-01-04T22:58:55.976Z,76.20
2023-01-04T23:01:27.444Z,76.20
2023-01-04T23:03:56.579Z,76.10
2023-01-04T23:06:26.076Z,76.10
2023-01-04T23:08:59.647Z,76.10
2023-01-04T23:11:29.005Z,75.90
2023-01-04T23:13:57.714Z,76.10
2023-01-04T23:16:32.414Z,76.00
2023-01-04T23:19:01.620Z,75.90
2023-01-04T23:21:30.169Z,76.00
2023-01-04T23:23:58.685Z,75.90
2023-01-04T23:26:28.290Z,75.90
2023-01-04T23:28:56.568Z,76.00
2023-01-04T23:31:28.428Z,75.90
2023-01-04T23:33:58.548Z,75.90
2023-01-04T23:36:29.296Z,75.90
2023-01-04T23:38:59.435Z,75.90
2023-01-04T23:41:41.733Z,76.00
2023-01-04T23:44:10.854Z,76.10
2023-01-04T23:46:40.541Z,76.20
2023-01-04T23:49:08.851Z,76.10
2023-01-04T23:51:37.141Z,76.10
2023-01-04T23:54:05.584Z,76.10
2023-01-04T23:56:33.827Z,76.20
2023-01-04T23:59:02.203Z,76.20
